createdAt,value
2018-07-06T00:00:37.210Z,4.13
2018-07-06T00:03:21.265Z,6.67
2018-07-06T00:05:56.178Z,3.50
2018-07-06T00:08:37.757Z,4.50
2018-07-06T00:11:19.203Z,4.73
2018-07-06T00:14:01.727Z,4.77
2018-07-06T00:16:42.875Z,3.17
2018-07-06T00:19:30.622Z,8.60
2018-07-06T00:22:14.797Z,3.23
2018-07-06T00:25:04.627Z,4.00
2018-07-06T00:27:48.173Z,4.50
2018-07-06T00:30:30.346Z,4.20
2018-07-06T00:33:15.496Z,4.20
2018-07-06T00:35:57.974Z,3.40
2018-07-06T00:38:41.418Z,4.20
2018-07-06T00:41:23.002Z,3.93
2018-07-06T00:44:05.119Z,4.67
2018-07-06T00:46:46.922Z,3.80
2018-07-06T00:49:28.640Z,3.77
2018-07-06T00:55:24.425Z,4.07
2018-07-06T00:58:10.043Z,3.90
2018-07-06T01:00:50.492Z,4.30
2018-07-06T01:03:31.661Z,3.77
2018-07-06T01:06:12.428Z,5.00
2018-07-06T01:08:47.754Z,4.87
2018-07-06T01:11:43.929Z,4.20
2018-07-06T01:14:25.329Z,4.60
2018-07-06T01:17:11.615Z,6.20
2018-07-06T01:19:58.036Z,4.80
2018-07-06T01:22:45.368Z,4.60
2018-07-06T01:25:30.590Z,5.13
2018-07-06T01:28:12.000Z,4.60
2018-07-06T01:30:52.338Z,5.90
2018-07-06T01:33:33.493Z,5.20
2018-07-06T01:36:13.979Z,5.87
2018-07-06T01:38:55.597Z,5.47
2018-07-06T01:41:36.406Z,7.20
2018-07-06T01:44:17.017Z,6.17
2018-07-06T01:46:57.256Z,5.67
2018-07-06T01:49:35.914Z,6.20
2018-07-06T01:52:22.615Z,6.33
2018-07-06T01:55:04.690Z,5.30
2018-07-06T01:57:45.340Z,7.40
2018-07-06T02:00:27.444Z,6.77
2018-07-06T02:03:07.654Z,5.77
2018-07-06T02:05:55.377Z,7.50
2018-07-06T02:08:38.165Z,6.43
2018-07-06T02:11:18.550Z,6.23
2018-07-06T02:13:58.597Z,6.30
2018-07-06T02:16:39.090Z,5.47
2018-07-06T02:19:19.598Z,6.20
2018-07-06T02:22:01.927Z,6.60
2018-07-06T02:24:46.662Z,6.70
2018-07-06T02:27:32.750Z,7.60
2018-07-06T02:30:13.652Z,9.27
2018-07-06T02:32:56.819Z,6.30
2018-07-06T02:35:38.381Z,8.10
2018-07-06T02:38:21.493Z,7.00
2018-07-06T02:41:04.708Z,7.00
2018-07-06T02:43:53.315Z,7.53
2018-07-06T02:46:43.779Z,7.70
2018-07-06T02:49:26.906Z,8.20
2018-07-06T02:52:17.837Z,6.77
2018-07-06T02:55:00.174Z,6.73
2018-07-06T02:57:43.410Z,8.50
2018-07-06T03:00:24.384Z,8.40
2018-07-06T03:03:05.613Z,6.87
2018-07-06T03:05:55.229Z,8.20
2018-07-06T03:08:41.038Z,7.90
2018-07-06T03:11:25.330Z,10.37
2018-07-06T03:14:12.990Z,7.97
2018-07-06T03:16:58.171Z,8.03
2018-07-06T03:19:35.496Z,7.97
2018-07-06T03:22:15.693Z,8.37
2018-07-06T03:25:00.199Z,8.20
2018-07-06T03:27:40.386Z,9.43
2018-07-06T03:30:27.730Z,8.50
2018-07-06T03:33:11.591Z,8.87
2018-07-06T03:35:49.519Z,8.73
2018-07-06T03:38:32.476Z,8.90
2018-07-06T03:41:08.368Z,9.57
2018-07-06T03:43:51.820Z,9.30
2018-07-06T03:46:38.340Z,9.20
2018-07-06T03:49:19.973Z,8.80
2018-07-06T03:52:00.383Z,11.57
2018-07-06T03:54:40.976Z,11.37
2018-07-06T03:57:23.081Z,9.40
2018-07-06T04:00:07.111Z,9.13
2018-07-06T04:02:56.538Z,11.10
2018-07-06T04:05:43.682Z,8.03
2018-07-06T04:08:24.881Z,9.40
2018-07-06T04:11:13.260Z,9.53
2018-07-06T04:13:53.646Z,14.10
2018-07-06T04:16:34.462Z,13.00
2018-07-06T04:19:15.308Z,10.80
2018-07-06T04:21:56.650Z,9.77
2018-07-06T04:24:32.974Z,9.00
2018-07-06T04:27:22.059Z,10.13
2018-07-06T04:30:02.312Z,9.90
2018-07-06T04:32:42.587Z,11.23
2018-07-06T04:35:32.980Z,10.17
2018-07-06T04:38:17.638Z,10.03
2018-07-06T04:41:02.608Z,10.90
2018-07-06T04:43:40.149Z,9.40
2018-07-06T04:46:20.648Z,8.97
2018-07-06T04:48:54.757Z,10.37
2018-07-06T04:51:36.018Z,11.07
2018-07-06T04:54:16.661Z,11.20
2018-07-06T04:56:57.213Z,11.20
2018-07-06T04:59:38.106Z,11.50
2018-07-06T05:02:21.312Z,11.97
2018-07-06T05:05:08.311Z,11.40
2018-07-06T05:07:48.983Z,11.23
2018-07-06T05:10:30.995Z,11.17
2018-07-06T05:13:14.783Z,11.20
2018-07-06T05:18:53.054Z,10.87
2018-07-06T05:21:35.247Z,11.63
2018-07-06T05:24:09.546Z,11.73
2018-07-06T05:26:55.091Z,13.00
2018-07-06T05:29:38.563Z,13.13
2018-07-06T05:32:19.247Z,11.33
2018-07-06T05:35:07.660Z,12.87
2018-07-06T05:37:50.522Z,11.23
2018-07-06T05:40:30.592Z,10.60
2018-07-06T05:43:11.267Z,12.17
2018-07-06T05:45:51.495Z,10.97
2018-07-06T05:48:31.859Z,12.07
2018-07-06T05:51:12.536Z,13.00
2018-07-06T05:53:52.943Z,13.30
2018-07-06T05:56:33.126Z,12.13
2018-07-06T05:59:13.281Z,12.87
2018-07-06T06:01:53.944Z,10.70
2018-07-06T06:04:34.085Z,11.90
2018-07-06T06:07:15.095Z,12.90
2018-07-06T06:09:44.041Z,14.37
2018-07-06T06:12:21.572Z,13.70
2018-07-06T06:14:52.672Z,14.63
2018-07-06T06:17:34.546Z,13.90
2018-07-06T06:20:04.421Z,19.93
2018-07-06T06:22:36.939Z,14.60
2018-07-06T06:25:06.143Z,14.60
2018-07-06T06:27:35.372Z,14.20
2018-07-06T06:30:04.680Z,17.17
2018-07-06T06:32:33.910Z,18.43
2018-07-06T06:35:18.278Z,19.13
2018-07-06T06:37:50.928Z,23.63
2018-07-06T06:40:27.062Z,23.47
2018-07-06T06:42:59.857Z,24.87
2018-07-06T06:45:29.535Z,25.50
2018-07-06T06:48:02.459Z,25.23
2018-07-06T06:50:38.409Z,25.30
2018-07-06T06:53:07.653Z,25.80
2018-07-06T06:55:47.219Z,25.37
2018-07-06T06:58:23.058Z,26.40
2018-07-06T07:00:57.541Z,28.43
2018-07-06T07:03:28.366Z,32.17
2018-07-06T07:06:05.369Z,34.67
2018-07-06T07:08:49.322Z,48.50
2018-07-06T07:11:19.358Z,51.93
2018-07-06T07:13:49.383Z,51.50
2018-07-06T07:16:19.243Z,51.17
2018-07-06T07:18:49.416Z,47.87
2018-07-06T07:21:19.079Z,45.07
2018-07-06T07:23:48.975Z,43.38
2018-07-06T07:26:18.914Z,43.77
2018-07-06T07:28:48.632Z,46.53
2018-07-06T07:31:18.338Z,43.30
2018-07-06T07:33:47.808Z,43.60
2018-07-06T07:36:17.687Z,47.70
2018-07-06T07:38:47.121Z,45.63
2018-07-06T07:41:17.149Z,47.83
2018-07-06T07:43:47.416Z,45.67
2018-07-06T07:46:22.771Z,45.47
2018-07-06T07:48:52.929Z,44.67
2018-07-06T07:52:01.172Z,46.60
2018-07-06T07:54:31.406Z,52.47
2018-07-06T07:57:16.877Z,47.60
2018-07-06T08:00:00.513Z,46.57
2018-07-06T08:05:56.258Z,46.40
2018-07-06T08:08:29.797Z,45.50
2018-07-06T08:11:00.891Z,45.13
2018-07-06T08:13:30.697Z,45.60
2018-07-06T08:16:00.535Z,48.00
2018-07-06T08:18:30.605Z,47.80
2018-07-06T08:21:00.716Z,46.47
2018-07-06T08:23:30.104Z,49.30
2018-07-06T08:26:00.469Z,49.20
2018-07-06T08:28:30.166Z,46.80
2018-07-06T08:30:59.570Z,48.40
2018-07-06T08:33:35.670Z,49.73
2018-07-06T08:38:29.127Z,50.67
2018-07-06T08:41:20.703Z,47.10
2018-07-06T08:44:01.382Z,47.13
2018-07-06T08:46:34.029Z,42.00
2018-07-06T08:49:03.396Z,44.23
2018-07-06T08:51:32.550Z,45.50
2018-07-06T08:54:01.947Z,40.30
2018-07-06T08:56:31.176Z,42.33
2018-07-06T08:59:00.741Z,40.57
2018-07-06T09:01:32.235Z,43.83
2018-07-06T09:04:02.447Z,40.57
2018-07-06T09:06:33.356Z,42.67
2018-07-06T09:09:02.924Z,38.17
2018-07-06T09:11:39.061Z,41.40
2018-07-06T09:14:12.533Z,40.57
2018-07-06T09:16:44.017Z,40.93
2018-07-06T09:19:13.702Z,40.57
2018-07-06T09:21:45.133Z,39.23
2018-07-06T09:24:15.812Z,33.90
2018-07-06T09:26:45.776Z,34.33
2018-07-06T09:29:16.928Z,33.10
2018-07-06T09:31:46.237Z,34.07
2018-07-06T09:34:33.534Z,37.93
2018-07-06T09:37:03.783Z,34.87
2018-07-06T09:39:33.078Z,38.03
2018-07-06T09:42:27.098Z,38.00
2018-07-06T09:45:03.095Z,30.73
2018-07-06T09:47:41.959Z,28.63
2018-07-06T09:50:19.717Z,28.37
2018-07-06T09:52:50.743Z,26.53
2018-07-06T09:55:27.598Z,27.73
2018-07-06T09:58:16.567Z,22.03
2018-07-06T10:01:13.942Z,21.80
2018-07-06T10:03:53.407Z,22.40
2018-07-06T10:06:25.940Z,22.57
2018-07-06T10:08:56.379Z,21.33
2018-07-06T10:11:26.482Z,21.20
2018-07-06T10:13:58.125Z,20.30
2018-07-06T10:16:28.196Z,23.20
2018-07-06T10:18:59.479Z,24.50
2018-07-06T10:21:29.404Z,19.73
2018-07-06T10:23:59.564Z,19.30
2018-07-06T10:26:30.012Z,19.57
2018-07-06T10:29:42.802Z,18.40
2018-07-06T10:32:20.481Z,17.47
2018-07-06T10:34:50.157Z,20.93
2018-07-06T10:37:21.180Z,19.77
2018-07-06T10:39:52.508Z,19.43
2018-07-06T10:42:59.114Z,25.57
2018-07-06T10:45:32.358Z,22.00
2018-07-06T10:48:05.459Z,20.50
2018-07-06T10:50:37.684Z,25.97
2018-07-06T10:53:09.717Z,19.63
2018-07-06T10:55:40.267Z,19.33
2018-07-06T10:58:10.349Z,22.30
2018-07-06T11:00:40.373Z,22.60
2018-07-06T11:03:10.699Z,24.47
2018-07-06T11:05:55.816Z,21.50
2018-07-06T11:08:30.144Z,19.17
2018-07-06T11:11:03.534Z,22.73
2018-07-06T11:13:35.422Z,23.97
2018-07-06T11:40:54.219Z,17.27
2018-07-06T11:43:39.441Z,15.90
2018-07-06T11:46:16.339Z,16.30
2018-07-06T11:48:46.219Z,14.00
2018-07-06T11:51:45.787Z,14.93
2018-07-06T11:54:25.266Z,13.33
2018-07-06T11:56:57.539Z,14.07
2018-07-06T11:59:38.610Z,14.47
2018-07-06T12:02:14.663Z,13.00
2018-07-06T12:04:53.549Z,12.00
2018-07-06T12:07:33.575Z,12.37
2018-07-06T12:10:14.518Z,14.23
2018-07-06T12:26:21.199Z,13.03
2018-07-06T12:29:10.506Z,11.40
2018-07-06T12:31:45.429Z,15.07
2018-07-06T12:34:28.528Z,12.40
2018-07-06T12:36:59.582Z,12.10
2018-07-06T12:39:40.049Z,12.20
2018-07-06T12:42:18.023Z,10.07
2018-07-06T12:45:32.224Z,10.97
2018-07-06T12:48:28.079Z,10.30
2018-07-06T12:51:44.800Z,9.17
2018-07-06T12:54:33.884Z,10.27
2018-07-06T12:57:18.327Z,9.80
2018-07-06T12:59:55.007Z,8.70
2018-07-06T13:02:58.927Z,9.27
2018-07-06T13:06:30.485Z,12.03
2018-07-06T13:09:16.815Z,11.27
2018-07-06T13:16:42.889Z,10.80
2018-07-06T13:26:47.191Z,10.13
2018-07-06T13:30:06.251Z,10.20
2018-07-06T13:39:40.067Z,10.50
2018-07-06T13:42:29.829Z,9.57
2018-07-06T14:03:52.228Z,15.13
